Time;durP1;ratioP1;P1;durP2;ratioP2;P2;SDS_P1;SDS_P2;PMS_P1;PMS_P2;Temp;Humidity;BMP_temperature;BMP_pressure;BME280_temperature;BME280_humidity;BME280_pressure;Samples;Min_cycle;Max_cycle;Signal;HPM_P1;HPM_P2
2023/03/23 00:00:11;;;;;;;29.40;19.80;;;;;;;8.92;81.50;99460.12;131350;1254;107424;-74
2023/03/23 00:03:36;;;;;;;37.80;23.10;;;;;;;8.98;81.59;99462.03;131209;1253;110084;-74
2023/03/23 00:06:42;;;;;;;37.70;24.40;;;;;;;9.04;81.54;99461.20;131199;1253;106667;-75
2023/03/23 00:09:47;;;;;;;34.50;23.60;;;;;;;9.11;81.60;99456.58;131188;1251;107665;-75
2023/03/23 00:12:53;;;;;;;34.90;23.30;;;;;;;9.16;81.73;99458.89;131251;1261;107500;-74
2023/03/23 00:15:58;;;;;;;36.20;22.40;;;;;;;9.19;81.51;99456.23;131251;1253;107522;-74
2023/03/23 00:19:07;;;;;;;35.70;23.00;;;;;;;9.21;81.49;99450.38;131229;1254;107353;-74
2023/03/23 00:22:12;;;;;;;33.70;21.50;;;;;;;9.19;81.37;99455.51;131385;1252;106742;-75
2023/03/23 00:25:18;;;;;;;28.70;18.70;;;;;;;9.19;81.41;99453.60;131177;1261;107496;-74
2023/03/23 00:28:25;;;;;;;37.60;23.40;;;;;;;9.20;81.48;99452.27;131362;1254;107559;-74
2023/03/23 00:31:32;;;;;;;34.40;21.90;;;;;;;9.23;81.54;99460.27;131380;1253;107526;-75
2023/03/23 00:34:38;;;;;;;33.40;22.40;;;;;;;9.26;81.30;99456.77;131372;1253;107503;-74
2023/03/23 00:37:44;;;;;;;32.70;22.70;;;;;;;9.29;81.44;99452.32;131265;1261;107194;-74
2023/03/23 00:40:49;;;;;;;35.10;23.00;;;;;;;9.31;81.36;99447.92;131302;1254;107476;-74
2023/03/23 00:43:55;;;;;;;35.20;23.50;;;;;;;9.31;81.41;99448.27;131392;1261;107372;-74
2023/03/23 00:47:01;;;;;;;31.50;19.60;;;;;;;9.29;81.54;99447.39;131198;1253;107478;-74
2023/03/23 00:50:09;;;;;;;28.30;17.60;;;;;;;9.29;81.76;99447.20;131186;1263;107286;-75
2023/03/23 00:53:15;;;;;;;30.70;19.90;;;;;;;9.30;81.46;99444.60;131262;1261;107573;-74
2023/03/23 00:56:21;;;;;;;30.30;20.10;;;;;;;9.33;81.42;99445.70;131359;1263;107357;-74
2023/03/23 00:59:27;;;;;;;29.80;20.20;;;;;;;9.36;81.53;99446.43;131295;1253;108625;-75
2023/03/23 01:02:32;;;;;;;32.50;22.40;;;;;;;9.39;81.31;99444.71;131106;1257;108532;-75
2023/03/23 01:05:39;;;;;;;31.10;21.10;;;;;;;9.42;81.50;99448.98;131020;1253;107566;-75
2023/03/23 01:08:45;;;;;;;32.40;22.50;;;;;;;9.44;81.47;99448.61;131000;1251;108569;-75
2023/03/23 01:11:55;;;;;;;29.40;18.80;;;;;;;9.44;81.55;99446.77;131001;1251;107455;-74
2023/03/23 01:15:01;;;;;;;29.00;18.10;;;;;;;9.45;81.53;99443.34;130995;1251;107432;-74
2023/03/23 01:18:07;;;;;;;30.90;20.70;;;;;;;9.47;81.61;99440.52;131050;1253;107465;-75
2023/03/23 01:21:15;;;;;;;30.40;21.00;;;;;;;9.51;81.38;99438.83;131019;1254;107511;-74
2023/03/23 01:24:20;;;;;;;30.50;20.90;;;;;;;9.55;81.56;99440.33;130954;1256;106544;-75
2023/03/23 01:27:26;;;;;;;29.40;21.20;;;;;;;9.57;81.52;99436.85;131052;1254;109345;-75
2023/03/23 01:30:32;;;;;;;36.00;22.00;;;;;;;9.58;81.37;99437.31;131025;1263;107575;-75
2023/03/23 01:33:37;;;;;;;29.90;21.00;;;;;;;9.59;81.54;99432.83;131371;1252;106697;-74
2023/03/23 01:36:43;;;;;;;26.60;18.30;;;;;;;9.58;81.76;99429.86;131292;1254;107511;-75
2023/03/23 01:39:49;;;;;;;25.10;16.60;;;;;;;9.57;81.31;99429.84;131361;1253;107344;-75
2023/03/23 01:42:54;;;;;;;29.90;19.00;;;;;;;9.57;81.46;99429.09;131461;1261;107636;-75
2023/03/23 01:46:00;;;;;;;27.80;19.60;;;;;;;9.60;81.54;99432.30;131279;1256;107502;-74
2023/03/23 01:49:10;;;;;;;27.60;19.20;;;;;;;9.64;81.53;99431.66;131268;1261;107514;-74
2023/03/23 01:52:21;;;;;;;26.80;18.70;;;;;;;9.68;81.39;99428.65;131427;1253;107517;-74
2023/03/23 01:55:29;;;;;;;28.70;18.50;;;;;;;9.68;81.53;99431.32;131314;1255;107559;-74
2023/03/23 01:58:37;;;;;;;28.20;19.60;;;;;;;9.67;81.47;99431.36;131512;1255;107528;-74
2023/03/23 02:01:45;;;;;;;26.80;16.70;;;;;;;9.66;81.46;99425.84;131418;1257;106369;-73
2023/03/23 02:04:51;;;;;;;24.60;15.50;;;;;;;9.65;81.48;99425.41;131441;1254;107473;-73
2023/03/23 02:08:02;;;;;;;25.40;17.30;;;;;;;9.66;81.54;99422.27;131277;1258;106717;-74
2023/03/23 02:11:16;;;;;;;26.10;16.80;;;;;;;9.70;81.57;99417.42;131412;1253;107426;-74
2023/03/23 02:14:22;;;;;;;24.70;17.20;;;;;;;9.74;81.49;99418.58;131107;1261;107640;-75
2023/03/23 02:17:36;;;;;;;24.30;16.80;;;;;;;9.77;81.29;99419.30;131073;1257;158256;-74
2023/03/23 02:21:17;;;;;;;25.00;17.40;;;;;;;9.76;81.43;99418.83;131246;1253;107868;-75
2023/03/23 02:24:56;;;;;;;24.70;15.90;;;;;;;9.74;81.37;99419.81;131310;1254;107567;-72
2023/03/23 02:28:38;;;;;;;23.10;14.50;;;;;;;9.71;81.51;99425.83;131236;1253;107387;-75
2023/03/23 02:32:06;;;;;;;23.40;14.70;;;;;;;9.68;81.71;99418.01;131284;1258;107231;-74
2023/03/23 02:35:19;;;;;;;22.40;14.90;;;;;;;9.67;81.58;99418.61;131362;1253;107635;-73
2023/03/23 02:38:31;;;;;;;21.10;15.10;;;;;;;9.69;81.52;99415.52;131459;1252;108620;-73
2023/03/23 02:41:41;;;;;;;22.80;15.40;;;;;;;9.69;81.39;99417.63;131200;1264;107581;-75
2023/03/23 02:44:49;;;;;;;23.40;14.80;;;;;;;9.70;81.24;99417.36;131268;1261;107422;-75
2023/03/23 02:47:57;;;;;;;21.80;15.40;;;;;;;9.68;81.38;99419.44;131414;1261;107456;-75
2023/03/23 02:51:05;;;;;;;20.90;14.90;;;;;;;9.64;81.30;99420.54;131407;1261;107447;-73
2023/03/23 02:54:12;;;;;;;19.80;14.00;;;;;;;9.58;81.17;99422.41;131308;1261;107450;-74
2023/03/23 02:57:18;;;;;;;22.10;13.70;;;;;;;9.50;81.25;99420.05;131325;1261;107213;-73
2023/03/23 03:00:24;;;;;;;18.40;12.20;;;;;;;9.44;81.34;99422.31;131247;1251;107348;-74
2023/03/23 03:03:32;;;;;;;19.70;13.70;;;;;;;9.39;81.32;99424.30;131224;1251;107604;-74
2023/03/23 03:06:48;;;;;;;20.70;14.20;;;;;;;9.37;81.19;99429.66;131267;1254;108634;-73
2023/03/23 03:09:59;;;;;;;21.10;14.40;;;;;;;9.36;81.19;99429.80;131403;1254;107540;-73
2023/03/23 03:13:16;;;;;;;20.50;14.20;;;;;;;9.34;81.12;99428.77;131146;1261;107520;-75
2023/03/23 03:16:31;;;;;;;20.40;13.60;;;;;;;9.29;81.21;99423.60;131155;1263;107649;-74
2023/03/23 03:19:40;;;;;;;21.60;14.40;;;;;;;9.24;81.46;99421.49;131406;1261;107366;-72
2023/03/23 03:22:47;;;;;;;19.70;12.80;;;;;;;9.21;81.33;99425.48;131254;1254;107574;-73
2023/03/23 03:25:57;;;;;;;17.40;11.90;;;;;;;9.19;81.59;99422.90;131311;1258;106480;-73
2023/03/23 03:29:09;;;;;;;19.50;13.00;;;;;;;9.19;81.50;99416.73;131284;1264;107405;-74
2023/03/23 03:32:22;;;;;;;20.60;13.50;;;;;;;9.18;81.42;99413.90;131131;1254;107416;-72
2023/03/23 03:35:31;;;;;;;19.30;13.50;;;;;;;9.18;81.44;99407.74;131077;1256;108564;-75
2023/03/23 03:38:45;;;;;;;18.50;13.20;;;;;;;9.18;81.30;99408.81;131210;1261;107540;-71
2023/03/23 03:41:51;;;;;;;18.70;12.70;;;;;;;9.15;81.46;99401.36;131102;1257;107549;-72
2023/03/23 03:44:56;;;;;;;18.80;13.20;;;;;;;9.10;81.22;99403.05;131214;1264;107566;-71
2023/03/23 03:48:02;;;;;;;22.10;12.90;;;;;;;9.05;81.36;99403.95;131320;1254;107946;-71
2023/03/23 03:51:10;;;;;;;18.10;11.30;;;;;;;8.99;81.38;99406.86;131269;1253;107496;-71
2023/03/23 03:54:17;;;;;;;15.80;10.50;;;;;;;8.92;81.42;99409.95;131339;1253;107439;-72
2023/03/23 03:57:22;;;;;;;19.20;13.00;;;;;;;8.88;81.31;99410.36;131261;1256;106135;-71
2023/03/23 04:00:47;;;;;;;19.30;12.70;;;;;;;8.88;81.53;99402.91;131207;1254;107467;-72
2023/03/23 04:03:54;;;;;;;20.20;13.40;;;;;;;8.90;81.63;99396.90;131059;1257;107489;-71
2023/03/23 04:07:07;;;;;;;20.60;13.30;;;;;;;8.91;81.33;99396.95;131193;1254;107944;-69
2023/03/23 04:10:13;;;;;;;18.00;12.30;;;;;;;8.92;81.60;99402.31;130939;1263;108054;-72
2023/03/23 04:13:21;;;;;;;18.70;12.80;;;;;;;8.92;81.49;99406.92;131264;1253;107407;-70
2023/03/23 04:16:56;;;;;;;16.10;10.80;;;;;;;8.93;81.45;99410.21;130956;1258;107569;-71
2023/03/23 04:20:07;;;;;;;16.80;9.70;;;;;;;8.94;81.59;99409.61;131206;1253;107157;-71
2023/03/23 04:23:13;;;;;;;17.30;10.90;;;;;;;8.95;81.42;99409.85;131150;1264;106707;-71
2023/03/23 04:26:18;;;;;;;16.00;11.00;;;;;;;8.97;81.50;99409.79;131233;1254;107497;-70
2023/03/23 04:29:28;;;;;;;18.00;12.30;;;;;;;9.01;81.60;99403.63;131020;1254;108029;-71
2023/03/23 04:32:54;;;;;;;17.80;12.20;;;;;;;9.05;81.57;99396.02;131214;1255;107417;-71
2023/03/23 04:36:02;;;;;;;18.00;11.70;;;;;;;9.06;81.41;99394.64;131159;1261;107451;-71
2023/03/23 04:39:16;;;;;;;16.00;11.20;;;;;;;9.06;81.52;99384.92;131257;1261;107454;-72
2023/03/23 04:42:25;;;;;;;18.00;12.40;;;;;;;9.06;81.63;99387.55;131322;1254;107559;-71
2023/03/23 04:45:55;;;;;;;17.00;10.30;;;;;;;9.04;81.63;99391.86;131074;1253;107523;-71
2023/03/23 04:49:01;;;;;;;14.30;9.60;;;;;;;9.03;81.86;99390.33;131297;1254;107447;-70
2023/03/23 04:52:11;;;;;;;14.90;10.30;;;;;;;9.06;81.60;99388.64;131164;1261;108000;-71
2023/03/23 04:55:28;;;;;;;16.00;10.80;;;;;;;9.11;81.64;99389.48;131203;1253;107507;-71
2023/03/23 04:58:37;;;;;;;19.10;11.50;;;;;;;9.18;81.49;99384.70;131290;1253;107465;-72
2023/03/23 05:01:57;;;;;;;16.30;11.00;;;;;;;9.24;81.65;99381.17;131335;1248;107532;-70
2023/03/23 05:05:04;;;;;;;15.70;11.10;;;;;;;9.29;81.70;99387.63;131153;1254;108096;-71
2023/03/23 05:08:11;;;;;;;15.90;11.20;;;;;;;9.32;81.64;99397.34;131148;1254;108013;-70
2023/03/23 05:11:19;;;;;;;15.20;10.40;;;;;;;9.35;81.69;99395.08;131046;1253;106271;-71
2023/03/23 05:14:24;;;;;;;13.60;9.50;;;;;;;9.39;81.61;99384.29;131154;1261;106209;-70
2023/03/23 05:17:43;;;;;;;14.90;10.10;;;;;;;9.46;81.58;99381.43;131015;1254;108006;-71
2023/03/23 05:20:53;;;;;;;13.70;9.80;;;;;;;9.54;81.36;99379.33;131303;1253;107455;-71
2023/03/23 05:24:01;;;;;;;15.10;10.50;;;;;;;9.63;81.48;99376.79;131295;1261;108014;-71
2023/03/23 05:27:07;;;;;;;16.70;10.80;;;;;;;9.71;81.53;99375.69;131208;1253;106494;-70
2023/03/23 05:30:16;;;;;;;15.40;11.00;;;;;;;9.81;81.50;99380.29;131069;1254;108053;-71
2023/03/23 05:33:22;;;;;;;16.00;11.40;;;;;;;9.91;81.08;99384.77;131145;1248;107532;-72
2023/03/23 05:36:39;;;;;;;16.50;11.40;;;;;;;9.98;81.35;99385.75;131402;1254;107490;-69
2023/03/23 05:39:48;;;;;;;15.40;10.20;;;;;;;10.04;81.40;99383.95;131346;1252;108505;-69
2023/03/23 05:43:14;;;;;;;14.00;9.20;;;;;;;10.12;81.32;99378.64;131080;1248;108052;-71
2023/03/23 05:46:27;;;;;;;14.40;10.10;;;;;;;10.20;81.58;99375.59;131055;1254;107990;-71
2023/03/23 05:49:36;;;;;;;15.70;9.50;;;;;;;10.31;81.28;99370.50;131068;1253;107462;-70
2023/03/23 05:52:43;;;;;;;13.30;10.10;;;;;;;10.43;81.04;99377.69;130968;1253;107385;-70
2023/03/23 05:55:51;;;;;;;17.90;11.50;;;;;;;10.51;81.17;99380.85;131103;1254;108067;-71
2023/03/23 05:59:12;;;;;;;16.40;10.90;;;;;;;10.58;81.03;99382.15;131167;1264;107330;-70
2023/03/23 06:02:18;;;;;;;14.90;11.00;;;;;;;10.65;80.92;99380.95;131021;1253;108432;-70
2023/03/23 06:05:25;;;;;;;14.80;11.00;;;;;;;10.68;80.93;99381.47;131219;1253;108295;-71
2023/03/23 06:08:33;;;;;;;14.80;11.10;;;;;;;10.71;80.57;99376.31;131310;1261;107485;-70
2023/03/23 06:11:39;;;;;;;14.90;11.30;;;;;;;10.73;80.65;99382.80;131373;1253;107456;-70
2023/03/23 06:15:00;;;;;;;14.10;9.90;;;;;;;10.74;80.85;99378.77;131152;1254;107808;-70
2023/03/23 06:18:21;;;;;;;14.90;10.70;;;;;;;10.76;80.67;99379.39;131318;1254;108321;-70
2023/03/23 06:21:47;;;;;;;17.80;12.50;;;;;;;10.82;80.35;99380.36;131399;1254;107515;-70
2023/03/23 06:25:01;;;;;;;19.10;11.90;;;;;;;10.87;80.40;99371.11;131381;1258;108118;-71
2023/03/23 06:28:15;;;;;;;17.30;12.60;;;;;;;10.91;80.46;99373.65;130973;1254;108165;-70
2023/03/23 06:31:22;;;;;;;20.10;12.80;;;;;;;10.94;80.41;99370.92;131197;1248;107554;-71
2023/03/23 06:34:29;;;;;;;17.70;13.10;;;;;;;10.97;80.21;99376.08;131433;1251;108652;-70
2023/03/23 06:37:54;;;;;;;16.10;12.30;;;;;;;11.04;80.16;99380.18;131233;1253;106136;-72
2023/03/23 06:41:11;;;;;;;20.20;12.60;;;;;;;11.11;80.29;99379.52;131046;1254;107477;-71
2023/03/23 06:44:16;;;;;;;16.30;12.10;;;;;;;11.15;80.14;99379.39;130852;1255;107450;-70
2023/03/23 06:47:23;;;;;;;16.90;11.10;;;;;;;11.21;80.10;99384.99;130971;1254;108029;-71
2023/03/23 06:50:29;;;;;;;15.00;11.60;;;;;;;11.30;80.15;99386.91;131162;1253;108527;-72
2023/03/23 06:53:36;;;;;;;15.80;11.80;;;;;;;11.44;80.15;99378.73;131230;1254;106565;-71
2023/03/23 06:56:42;;;;;;;16.30;11.40;;;;;;;11.60;79.98;99387.01;131300;1252;107441;-71
2023/03/23 06:59:48;;;;;;;16.50;12.00;;;;;;;11.76;79.73;99390.75;131313;1261;107350;-70
2023/03/23 07:02:53;;;;;;;18.40;12.70;;;;;;;11.86;79.48;99391.20;130937;1248;107423;-72
2023/03/23 07:06:00;;;;;;;16.90;11.50;;;;;;;11.90;79.37;99391.08;131070;1248;107598;-71
2023/03/23 07:09:08;;;;;;;18.00;11.50;;;;;;;11.95;79.59;99391.48;131100;1248;107497;-71
2023/03/23 07:12:14;;;;;;;16.90;12.40;;;;;;;11.95;79.39;99393.58;131270;1254;108061;-70
2023/03/23 07:15:25;;;;;;;15.90;12.30;;;;;;;11.96;79.17;99392.68;131258;1254;106537;-70
2023/03/23 07:18:31;;;;;;;18.10;12.10;;;;;;;12.00;79.29;99397.36;131344;1261;107388;-70
2023/03/23 07:21:38;;;;;;;16.60;11.10;;;;;;;12.07;79.21;99397.99;131263;1254;108133;-70
2023/03/23 07:24:44;;;;;;;18.50;12.10;;;;;;;12.15;79.23;99395.77;131361;1253;108113;-70
2023/03/23 07:28:06;;;;;;;17.30;12.00;;;;;;;12.26;78.97;99402.16;131124;1254;107403;-70
2023/03/23 07:31:11;;;;;;;18.50;12.70;;;;;;;12.33;78.64;99398.27;131231;1254;107223;-70
2023/03/23 07:34:17;;;;;;;16.90;11.80;;;;;;;12.39;78.20;99397.19;131285;1260;108410;-70
2023/03/23 07:37:53;;;;;;;17.20;12.10;;;;;;;12.49;78.49;99390.28;131057;1260;107571;-70
2023/03/23 07:40:59;;;;;;;15.50;12.00;;;;;;;12.61;78.25;99380.30;131110;1254;108077;-70
2023/03/23 07:44:05;;;;;;;14.70;11.70;;;;;;;12.72;78.14;99376.56;131291;1253;108023;-71
2023/03/23 07:47:15;;;;;;;14.10;11.70;;;;;;;12.84;77.87;99378.40;131251;1254;108065;-70
2023/03/23 07:50:23;;;;;;;17.40;11.70;;;;;;;12.94;77.73;99379.07;131067;1253;108020;-70
2023/03/23 07:53:30;;;;;;;13.50;10.70;;;;;;;13.06;77.68;99371.89;131233;1254;108088;-72
2023/03/23 07:56:46;;;;;;;17.10;13.40;;;;;;;13.17;77.46;99372.52;131233;1264;107450;-72
2023/03/23 08:00:00;;;;;;;14.20;11.20;;;;;;;13.27;77.31;99375.84;131220;1253;107510;-70
2023/03/23 08:03:08;;;;;;;17.00;12.20;;;;;;;13.39;77.29;99370.65;131190;1254;107623;-71
2023/03/23 08:06:34;;;;;;;15.50;11.90;;;;;;;13.51;77.01;99360.36;131022;1253;107017;-71
2023/03/23 08:10:04;;;;;;;17.20;11.90;;;;;;;13.65;76.53;99353.76;131148;1254;108357;-70
2023/03/23 08:13:34;;;;;;;16.30;12.70;;;;;;;13.75;76.16;99345.77;131006;1254;107401;-70
2023/03/23 08:17:00;;;;;;;18.40;11.80;;;;;;;13.86;76.01;99344.70;131123;1254;109066;-70
2023/03/23 08:20:26;;;;;;;15.60;10.80;;;;;;;14.05;76.13;99346.13;131084;1252;107590;-70
2023/03/23 08:24:08;;;;;;;12.30;9.40;;;;;;;14.29;75.58;99345.41;130498;1268;108543;-71
2023/03/23 08:27:37;;;;;;;13.90;10.40;;;;;;;14.45;75.05;99342.89;130973;1261;106642;-71
2023/03/23 08:30:54;;;;;;;13.70;9.60;;;;;;;14.57;74.95;99337.37;131178;1253;108088;-70
2023/03/23 08:34:19;;;;;;;12.90;9.80;;;;;;;14.68;74.92;99339.30;131053;1251;107838;-71
2023/03/23 08:37:41;;;;;;;10.70;9.00;;;;;;;14.76;74.11;99346.61;131142;1253;106269;-71
2023/03/23 08:41:08;;;;;;;12.40;9.80;;;;;;;14.83;74.52;99348.37;131036;1253;110337;-71
2023/03/23 08:44:49;;;;;;;10.50;8.50;;;;;;;14.91;73.92;99350.03;130586;1254;107841;-71
2023/03/23 08:48:15;;;;;;;12.10;9.10;;;;;;;14.99;73.97;99344.77;131078;1253;107037;-70
2023/03/23 08:51:36;;;;;;;11.90;9.10;;;;;;;15.07;73.16;99341.10;131140;1253;108157;-71
2023/03/23 08:54:48;;;;;;;10.70;9.10;;;;;;;15.16;72.82;99344.90;131061;1254;107525;-70
2023/03/23 08:58:04;;;;;;;11.60;9.10;;;;;;;15.29;72.96;99335.53;131045;1254;109169;-71
2023/03/23 09:01:29;;;;;;;13.50;8.70;;;;;;;15.42;71.98;99329.33;131066;1257;108019;-70
2023/03/23 09:05:01;;;;;;;11.70;9.10;;;;;;;15.51;71.91;99329.31;131192;1254;107426;-70
2023/03/23 09:08:13;;;;;;;12.70;9.20;;;;;;;15.63;71.76;99331.99;131084;1253;105927;-70
2023/03/23 09:11:19;;;;;;;12.00;8.80;;;;;;;15.80;72.10;99327.16;131259;1251;107499;-71
2023/03/23 09:14:25;;;;;;;11.00;9.20;;;;;;;15.97;71.72;99333.12;131104;1248;108147;-70
2023/03/23 09:17:31;;;;;;;10.20;8.80;;;;;;;16.12;71.66;99332.01;131018;1254;107998;-71
2023/03/23 09:20:37;;;;;;;9.90;8.30;;;;;;;16.19;70.36;99331.08;131030;1248;107810;-71
2023/03/23 09:23:44;;;;;;;11.10;8.60;;;;;;;16.22;70.44;99329.02;131123;1261;107507;-72
2023/03/23 09:26:50;;;;;;;11.70;8.10;;;;;;;16.22;69.85;99327.95;131114;1248;107527;-70
2023/03/23 09:29:56;;;;;;;10.60;8.40;;;;;;;16.17;69.87;99327.24;131036;1248;107894;-71
2023/03/23 09:33:03;;;;;;;10.00;8.20;;;;;;;16.07;70.05;99325.10;131023;1257;107635;-71
2023/03/23 09:36:12;;;;;;;10.00;7.70;;;;;;;15.98;69.44;99323.44;131145;1253;108140;-70
2023/03/23 09:39:18;;;;;;;10.30;8.30;;;;;;;15.90;68.84;99319.78;131157;1254;107938;-71
2023/03/23 09:42:38;;;;;;;12.20;8.40;;;;;;;15.83;69.01;99313.33;131189;1248;107533;-71
2023/03/23 09:45:52;;;;;;;9.10;8.00;;;;;;;15.78;68.52;99309.00;131214;1248;108925;-71
2023/03/23 09:49:02;;;;;;;9.20;7.40;;;;;;;15.75;68.37;99311.73;131047;1247;107231;-71
2023/03/23 09:52:14;;;;;;;8.20;7.10;;;;;;;15.73;68.01;99312.59;131101;1253;107351;-70
2023/03/23 09:55:21;;;;;;;7.70;6.90;;;;;;;15.72;68.21;99302.20;131223;1254;107438;-71
2023/03/23 09:58:32;;;;;;;10.30;7.50;;;;;;;15.77;67.74;99300.07;131010;1248;107792;-71
2023/03/23 10:01:44;;;;;;;7.90;6.80;;;;;;;15.78;67.91;99300.64;131076;1253;107514;-71
2023/03/23 10:04:51;;;;;;;8.10;6.40;;;;;;;15.76;66.81;99298.49;131073;1251;107431;-70
2023/03/23 10:07:57;;;;;;;6.80;6.10;;;;;;;15.81;67.72;99298.73;131055;1254;107498;-71
2023/03/23 10:11:05;;;;;;;8.40;6.10;;;;;;;15.88;67.05;99299.37;131258;1263;107371;-70
2023/03/23 10:14:26;;;;;;;7.10;5.90;;;;;;;15.95;66.53;99292.69;131260;1254;107532;-70
2023/03/23 10:17:36;;;;;;;9.20;6.30;;;;;;;16.03;66.59;99293.95;131264;1253;107394;-71
2023/03/23 10:20:49;;;;;;;9.20;5.40;;;;;;;16.06;66.34;99283.38;131075;1247;107237;-70
2023/03/23 10:24:00;;;;;;;7.40;5.20;;;;;;;16.12;66.52;99277.55;131070;1254;107391;-70
2023/03/23 10:27:14;;;;;;;6.30;5.00;;;;;;;16.20;66.35;99271.07;131242;1253;107349;-71
2023/03/23 10:30:27;;;;;;;7.30;5.00;;;;;;;16.29;66.12;99270.70;131033;1253;107226;-71
2023/03/23 10:33:40;;;;;;;5.60;4.50;;;;;;;16.33;65.26;99266.24;131214;1253;107548;-70
2023/03/23 10:36:57;;;;;;;6.60;4.70;;;;;;;16.36;65.74;99263.29;131288;1248;107255;-71
2023/03/23 10:40:09;;;;;;;5.80;4.80;;;;;;;16.38;65.25;99253.58;131177;1254;107207;-71
2023/03/23 10:43:13;;;;;;;;;;;;;;;16.39;64.65;99251.17;131398;1247;107272;-70
2023/03/23 10:46:27;;;;;;;5.20;4.20;;;;;;;16.42;64.64;99252.83;131129;1253;107950;-70
2023/03/23 10:49:41;;;;;;;5.60;4.60;;;;;;;16.49;64.66;99254.06;131219;1254;107505;-71
2023/03/23 10:52:47;;;;;;;5.50;4.50;;;;;;;16.61;64.30;99250.23;131361;1248;108075;-71
2023/03/23 10:55:54;;;;;;;5.10;4.30;;;;;;;16.73;63.98;99242.73;131114;1253;108537;-71
2023/03/23 10:59:00;;;;;;;4.90;4.10;;;;;;;16.83;63.99;99250.38;131256;1252;107511;-71
2023/03/23 11:02:17;;;;;;;5.30;3.80;;;;;;;16.96;63.98;99251.98;131138;1253;107535;-71
2023/03/23 11:05:37;;;;;;;5.30;4.20;;;;;;;17.11;62.87;99248.27;131439;1253;107499;-71
2023/03/23 11:08:53;;;;;;;4.10;3.50;;;;;;;17.31;63.39;99238.34;131117;1262;107411;-71
2023/03/23 11:11:58;;;;;;;6.90;3.90;;;;;;;17.48;62.79;99235.39;131076;1248;107367;-71
2023/03/23 11:15:23;;;;;;;3.70;3.20;;;;;;;17.57;62.41;99235.02;130994;1253;108073;-71
2023/03/23 11:18:37;;;;;;;5.90;3.50;;;;;;;17.69;62.28;99231.64;131215;1253;107495;-71
2023/03/23 11:21:51;;;;;;;5.20;3.70;;;;;;;17.85;62.09;99224.55;131088;1253;107507;-70
2023/03/23 11:25:01;;;;;;;5.00;3.50;;;;;;;18.11;62.08;99220.14;131317;1253;107496;-71
2023/03/23 11:28:09;;;;;;;5.30;3.60;;;;;;;18.33;61.89;99220.41;131210;1263;107511;-71
2023/03/23 11:31:15;;;;;;;4.60;3.70;;;;;;;18.50;61.44;99219.83;131191;1254;107369;-71
2023/03/23 11:34:24;;;;;;;5.80;3.80;;;;;;;18.60;61.20;99213.99;131078;1251;106238;-70
2023/03/23 11:37:36;;;;;;;5.50;3.50;;;;;;;18.71;61.58;99212.91;131163;1253;107960;-71
2023/03/23 11:40:48;;;;;;;5.10;3.30;;;;;;;18.75;59.34;99215.88;131217;1253;107964;-71
2023/03/23 11:43:55;;;;;;;4.50;2.90;;;;;;;18.73;59.98;99211.45;131034;1252;107818;-71
2023/03/23 11:47:07;;;;;;;4.40;3.10;;;;;;;18.79;60.04;99200.41;131044;1253;109031;-71
2023/03/23 11:50:17;;;;;;;4.20;2.60;;;;;;;18.81;59.20;99204.92;131039;1251;107864;-71
2023/03/23 11:53:39;;;;;;;3.20;2.40;;;;;;;18.89;59.20;99212.52;131089;1254;107238;-71
2023/03/23 11:56:47;;;;;;;5.40;3.40;;;;;;;18.95;57.43;99209.95;131058;1253;107532;-70
2023/03/23 11:59:53;;;;;;;3.80;2.70;;;;;;;18.91;57.37;99203.63;131060;1253;107498;-70
2023/03/23 12:03:06;;;;;;;4.50;2.50;;;;;;;18.86;57.73;99190.30;131123;1254;108022;-71
2023/03/23 12:06:39;;;;;;;4.40;2.80;;;;;;;18.91;57.62;99179.60;131030;1248;108143;-70
2023/03/23 12:09:54;;;;;;;3.10;2.50;;;;;;;19.04;57.46;99179.88;131128;1248;108154;-70
2023/03/23 12:13:13;;;;;;;4.10;2.70;;;;;;;19.12;55.86;99181.61;131059;1250;108045;-71
2023/03/23 12:16:30;;;;;;;3.80;2.70;;;;;;;19.13;54.90;99186.50;131336;1261;107863;-70
2023/03/23 12:19:45;;;;;;;4.40;2.40;;;;;;;19.06;55.01;99191.63;131269;1253;109078;-70
2023/03/23 12:23:04;;;;;;;4.80;3.10;;;;;;;19.00;55.09;99198.20;131080;1247;107227;-70
2023/03/23 12:26:24;;;;;;;8.10;3.60;;;;;;;19.06;55.18;99199.02;131104;1253;107583;-70
2023/03/23 12:29:52;;;;;;;3.50;2.80;;;;;;;19.14;54.25;99190.55;131213;1253;107531;-70
2023/03/23 12:33:19;;;;;;;5.20;2.70;;;;;;;19.22;53.96;99193.08;131154;1253;107436;-70
2023/03/23 12:36:45;;;;;;;3.70;2.90;;;;;;;19.31;53.80;99196.20;131222;1248;108168;-70
2023/03/23 12:40:12;;;;;;;7.10;3.10;;;;;;;19.36;53.43;99212.00;131105;1253;107529;-70
2023/03/23 12:43:26;;;;;;;4.50;3.40;;;;;;;19.28;53.07;99216.41;131035;1250;108061;-71
2023/03/23 12:47:04;;;;;;;4.10;3.40;;;;;;;19.14;52.44;99217.60;131103;1253;108007;-71
2023/03/23 12:50:18;;;;;;;4.30;3.10;;;;;;;18.93;53.01;99223.86;131083;1254;107523;-70
2023/03/23 12:53:28;;;;;;;4.50;3.20;;;;;;;18.76;54.26;99233.85;131066;1253;107522;-70
2023/03/23 12:56:40;;;;;;;6.70;3.40;;;;;;;18.59;53.45;99244.23;131124;1253;107839;-70
2023/03/23 12:59:50;;;;;;;4.20;3.20;;;;;;;18.39;53.62;99240.85;131035;1253;106377;-70
2023/03/23 13:03:02;;;;;;;4.00;2.90;;;;;;;18.27;52.66;99238.23;131333;1262;108141;-70
2023/03/23 13:06:09;;;;;;;;;;;;;;;18.24;53.19;99241.46;131211;1253;107210;-70
2023/03/23 13:09:20;;;;;;;3.80;2.90;;;;;;;18.31;53.47;99238.89;131035;1254;107521;-70
2023/03/23 13:12:28;;;;;;;3.60;2.70;;;;;;;18.37;54.03;99236.40;131146;1254;107370;-70
2023/03/23 13:15:45;;;;;;;4.50;3.00;;;;;;;18.42;53.94;99237.08;130871;1254;109879;-70
2023/03/23 13:19:03;;;;;;;6.60;3.20;;;;;;;18.43;53.62;99230.36;131078;1248;106291;-70
2023/03/23 13:22:14;;;;;;;5.00;3.10;;;;;;;18.45;54.01;99232.23;131098;1249;106247;-70
2023/03/23 13:25:31;;;;;;;5.90;3.70;;;;;;;18.40;52.77;99226.70;131084;1253;107921;-70
2023/03/23 13:28:55;;;;;;;5.00;3.70;;;;;;;18.35;53.30;99222.83;131144;1248;107257;-70
2023/03/23 13:32:16;;;;;;;4.10;2.80;;;;;;;18.28;53.38;99222.34;131221;1253;108554;-70
2023/03/23 13:35:22;;;;;;;3.40;3.10;;;;;;;18.15;53.38;99225.05;131223;1253;107873;-70
2023/03/23 13:38:30;;;;;;;4.90;3.40;;;;;;;18.03;53.22;99229.31;131063;1253;106774;-70
2023/03/23 13:41:47;;;;;;;4.40;3.20;;;;;;;17.93;53.21;99233.15;131167;1248;107842;-70
2023/03/23 13:45:19;;;;;;;3.40;3.00;;;;;;;17.82;52.95;99244.04;131455;1254;107563;-70
2023/03/23 13:48:26;;;;;;;4.10;3.10;;;;;;;17.76;52.89;99250.20;131125;1253;106431;-70
2023/03/23 13:51:49;;;;;;;3.70;3.00;;;;;;;17.74;52.70;99250.02;131241;1254;107512;-70
2023/03/23 13:55:22;;;;;;;3.90;3.20;;;;;;;17.72;52.86;99249.87;131101;1253;107372;-70
2023/03/23 13:58:28;;;;;;;4.80;2.90;;;;;;;17.72;53.07;99254.89;131168;1253;107435;-70
2023/03/23 14:01:39;;;;;;;4.60;3.20;;;;;;;17.69;52.73;99257.67;131238;1254;107545;-70
2023/03/23 14:04:47;;;;;;;4.40;3.40;;;;;;;17.64;53.17;99254.12;131211;1253;107906;-70
2023/03/23 14:07:59;;;;;;;4.70;3.60;;;;;;;17.61;53.32;99261.69;131256;1253;107992;-70
2023/03/23 14:11:14;;;;;;;5.50;3.70;;;;;;;17.54;53.31;99265.04;131321;1253;107334;-70
2023/03/23 14:14:28;;;;;;;5.00;3.40;;;;;;;17.41;52.81;99259.20;131061;1248;107267;-70
2023/03/23 14:17:43;;;;;;;5.30;3.60;;;;;;;17.28;53.38;99259.52;131000;1253;139887;-70
2023/03/23 14:20:50;;;;;;;4.80;3.30;;;;;;;17.17;53.44;99257.10;131262;1253;108043;-70
2023/03/23 14:23:56;;;;;;;5.20;3.20;;;;;;;17.08;53.29;99261.23;131099;1253;107517;-70
2023/03/23 14:27:11;;;;;;;5.10;3.30;;;;;;;16.99;53.63;99262.16;131084;1252;107471;-70
2023/03/23 14:30:19;;;;;;;11.80;7.90;;;;;;;16.92;53.58;99263.92;131280;1251;107497;-70
2023/03/23 14:33:28;;;;;;;25.30;13.70;;;;;;;16.83;53.43;99270.37;131353;1253;107509;-70
2023/03/23 14:36:36;;;;;;;186.30;72.80;;;;;;;16.75;53.00;99271.10;131258;1253;107249;-70